Time;durP1;ratioP1;P1;durP2;ratioP2;P2;SDS_P1;SDS_P2;PMS_P1;PMS_P2;Temp;Humidity;BMP_temperature;BMP_pressure;BME280_temperature;BME280_humidity;BME280_pressure;Samples;Min_cycle;Max_cycle;Signal;HPM_P1;HPM_P2
2023/06/09 00:02:50;;;;;;;15.75;13.20;;;12.30;99.90;;;;;;6177313;23;20354;-94
2023/06/09 00:05:40;;;;;;;15.15;11.98;;;12.30;99.90;;;;;;6175166;23;20025;-91
2023/06/09 00:08:29;;;;;;;14.73;12.13;;;12.20;99.90;;;;;;6158697;23;20034;-90
2023/06/09 00:11:19;;;;;;;17.92;13.45;;;12.20;1.00;;;;;;6179774;23;20036;-90
2023/06/09 00:14:07;;;;;;;18.02;12.93;;;12.20;1.00;;;;;;6186251;23;20088;-91
2023/06/09 00:16:55;;;;;;;16.85;13.13;;;12.10;9.10;;;;;;6185624;23;20025;-93
2023/06/09 00:19:53;;;;;;;16.65;13.45;;;12.10;76.00;;;;;;6181112;23;20029;-94
2023/06/09 00:22:48;;;;;;;18.92;14.88;;;12.10;99.90;;;;;;6190532;23;20033;-94
2023/06/09 00:25:36;;;;;;;20.35;14.48;;;12.20;99.90;;;;;;6172208;23;20026;-92
2023/06/09 00:28:25;;;;;;;20.48;13.82;;;12.20;99.90;;;;;;6169678;23;20037;-94
2023/06/09 00:31:17;;;;;;;17.80;13.35;;;12.10;99.90;;;;;;6178573;23;20040;-93
2023/06/09 00:34:11;;;;;;;17.63;13.10;;;11.90;1.00;;;;;;6176894;23;20029;-91
2023/06/09 00:37:08;;;;;;;17.63;14.27;;;11.80;99.90;;;;;;6176643;23;20313;-92
2023/06/09 00:40:02;;;;;;;17.75;13.63;;;11.80;99.90;;;;;;6164379;23;20030;-92
2023/06/09 00:42:54;;;;;;;16.17;12.73;;;11.90;1.00;;;;;;6183196;23;20069;-92
2023/06/09 00:45:47;;;;;;;20.42;12.63;;;11.90;99.90;;;;;;6183925;23;20026;-93
2023/06/09 00:48:36;;;;;;;18.17;14.00;;;11.90;99.90;;;;;;6162518;23;20035;-92
2023/06/09 00:51:28;;;;;;;15.75;13.40;;;11.70;99.90;;;;;;6167124;23;20101;-93
2023/06/09 00:54:30;;;;;;;;;;;;;;;;;;;;;
2023/06/09 00:57:33;;;;;;;15.43;13.00;;;11.60;99.90;;;;;;6177560;23;20028;-93
2023/06/09 01:00:35;;;;;;;16.98;13.68;;;11.70;1.00;;;;;;6175858;23;20045;-92
2023/06/09 01:03:24;;;;;;;16.55;12.90;;;11.70;99.90;;;;;;6178201;23;20006;-92
2023/06/09 01:06:30;;;;;;;14.77;12.30;;;11.70;99.90;;;;;;6193493;23;20025;-92
2023/06/09 01:09:44;;;;;;;16.70;12.90;;;11.60;99.90;;;;;;6157343;23;20060;-95
2023/06/09 01:12:53;;;;;;;15.95;12.32;;;11.60;99.80;;;;;;6162646;23;20033;-93
2023/06/09 01:15:50;;;;;;;16.33;12.35;;;11.40;99.90;;;;;;6159118;23;20022;-94
2023/06/09 01:18:55;;;;;;;;;;;;;;;;;;;;;
2023/06/09 01:21:48;;;;;;;15.98;13.65;;;11.40;99.90;;;;;;6162114;23;20030;-92
2023/06/09 01:25:06;;;;;;;17.23;13.18;;;11.40;96.60;;;;;;6162278;23;20124;-94
2023/06/09 01:28:08;;;;;;;17.85;13.57;;;11.40;1.00;;;;;;6181919;23;20026;-93
2023/06/09 01:31:00;;;;;;;16.10;12.95;;;11.20;1.00;;;;;;6178787;23;20030;-92
2023/06/09 01:33:51;;;;;;;24.20;18.02;;;11.20;1.00;;;;;;6160721;23;20029;-92
2023/06/09 01:36:43;;;;;;;19.42;15.65;;;11.30;23.20;;;;;;6159291;23;20060;-93
2023/06/09 01:39:40;;;;;;;25.48;17.48;;;11.20;83.40;;;;;;6182300;23;20373;-93
2023/06/09 01:42:31;;;;;;;21.65;18.45;;;11.20;99.90;;;;;;6165878;23;20510;-92
2023/06/09 01:45:52;;;;;;;22.05;18.63;;;11.20;99.90;;;;;;6163617;23;20417;-92
2023/06/09 01:49:03;;;;;;;22.10;18.63;;;11.20;99.90;;;;;;6186315;23;20022;-92
2023/06/09 01:52:20;;;;;;;20.08;17.27;;;11.10;99.90;;;;;;6131447;23;20026;-92
2023/06/09 01:55:22;;;;;;;21.05;17.15;;;11.20;45.30;;;;;;6168071;23;20030;-92
2023/06/09 01:58:45;;;;;;;22.27;15.98;;;11.10;40.00;;;;;;6159329;23;20036;-94
2023/06/09 02:01:34;;;;;;;21.05;16.20;;;11.00;1.00;;;;;;6176893;23;20061;-92
2023/06/09 02:04:25;;;;;;;20.45;15.95;;;10.90;1.00;;;;;;6177268;23;20034;-92
2023/06/09 02:07:30;;;;;;;17.45;15.23;;;10.80;1.00;;;;;;6174548;23;20053;-92
2023/06/09 02:10:21;;;;;;;19.13;16.75;;;10.60;99.90;;;;;;6158997;23;20057;-94
2023/06/09 02:13:15;;;;;;;22.20;18.20;;;10.60;1.00;;;;;;6177886;23;20036;-93
2023/06/09 02:16:07;;;;;;;20.52;16.95;;;10.60;1.00;;;;;;6176844;23;20026;-93
2023/06/09 02:19:06;;;;;;;20.98;17.50;;;10.70;57.10;;;;;;6175649;23;20021;-92
2023/06/09 02:21:57;;;;;;;20.63;16.30;;;10.60;99.90;;;;;;6178581;23;20431;-92
2023/06/09 02:25:07;;;;;;;21.23;17.08;;;10.50;99.90;;;;;;6157248;23;20096;-94
2023/06/09 02:28:08;;;;;;;25.75;17.75;;;10.50;99.90;;;;;;6175476;23;20025;-93
2023/06/09 02:31:26;;;;;;;;;;;;;;;;;;;;;
2023/06/09 02:34:25;;;;;;;22.52;17.67;;;10.70;99.90;;;;;;6159060;23;20021;-95
2023/06/09 02:37:45;;;;;;;25.23;18.27;;;10.80;99.90;;;;;;6155362;23;20075;-94
2023/06/09 02:40:51;;;;;;;21.50;17.67;;;10.80;99.90;;;;;;6181761;23;20034;-93
2023/06/09 02:43:50;;;;;;;;;;;;;;;;;;;;;
2023/06/09 02:46:52;;;;;;;20.08;16.08;;;10.80;99.90;;;;;;6157336;23;20386;-94
2023/06/09 02:50:08;;;;;;;21.55;16.25;;;10.60;99.90;;;;;;6091447;23;20036;-94
2023/06/09 02:53:06;;;;;;;24.17;16.77;;;10.50;99.90;;;;;;6176999;23;20057;-94
2023/06/09 02:55:56;;;;;;;21.52;17.42;;;10.60;99.90;;;;;;6157149;23;20025;-94
2023/06/09 02:58:51;;;;;;;18.92;16.52;;;10.80;99.90;;;;;;6178208;23;20030;-93
2023/06/09 03:01:42;;;;;;;21.85;17.33;;;10.80;99.90;;;;;;6156073;23;20025;-95
2023/06/09 03:04:35;;;;;;;19.27;16.00;;;10.80;99.90;;;;;;6156973;23;20332;-93
2023/06/09 03:07:23;;;;;;;19.30;15.88;;;10.70;99.90;;;;;;6174095;23;20040;-92
2023/06/09 03:10:15;;;;;;;19.23;15.38;;;10.60;99.90;;;;;;6176402;23;20036;-94
2023/06/09 03:13:06;;;;;;;19.80;16.48;;;10.60;99.90;;;;;;6177121;23;20033;-95
2023/06/09 03:16:07;;;;;;;20.65;17.00;;;10.50;99.90;;;;;;6177780;23;20037;-93
2023/06/09 03:18:56;;;;;;;20.75;17.65;;;10.50;99.90;;;;;;6176940;23;20029;-92
2023/06/09 03:21:53;;;;;;;23.65;18.13;;;10.70;99.90;;;;;;6177263;23;20045;-94
2023/06/09 03:25:11;;;;;;;20.55;17.95;;;10.70;99.90;;;;;;6159833;23;20096;-93
2023/06/09 03:28:05;;;;;;;23.17;18.40;;;10.60;99.90;;;;;;6175811;23;20431;-94
2023/06/09 03:30:56;;;;;;;22.35;18.27;;;10.60;99.90;;;;;;6180051;23;20029;-92
2023/06/09 03:34:07;;;;;;;29.55;20.48;;;10.60;99.90;;;;;;6180452;23;20362;-93
2023/06/09 03:37:09;;;;;;;25.42;19.75;;;10.60;99.90;;;;;;6157338;23;20101;-92
2023/06/09 03:40:52;;;;;;;25.88;20.80;;;10.60;99.90;;;;;;6164509;23;20436;-93
2023/06/09 03:43:45;;;;;;;25.27;20.35;;;10.50;99.90;;;;;;6164859;23;20032;-92
2023/06/09 03:47:15;;;;;;;22.98;19.33;;;10.70;99.90;;;;;;6161515;23;20392;-94
2023/06/09 03:50:32;;;;;;;25.02;20.13;;;10.60;99.90;;;;;;6173751;23;20115;-94
2023/06/09 03:53:52;;;;;;;21.58;18.00;;;10.60;99.90;;;;;;6162626;23;20021;-94
2023/06/09 03:56:51;;;;;;;23.65;17.45;;;10.60;99.90;;;;;;6177037;23;20401;-94
2023/06/09 03:59:59;;;;;;;22.88;17.55;;;10.50;99.90;;;;;;6174370;23;20068;-93
2023/06/09 04:03:16;;;;;;;23.95;18.23;;;10.50;99.90;;;;;;6179979;23;20088;-95
2023/06/09 04:06:27;;;;;;;;;;;;;;;;;;;;;
2023/06/09 04:09:20;;;;;;;25.25;21.08;;;10.70;99.90;;;;;;6159190;23;20025;-94
2023/06/09 04:12:13;;;;;;;24.48;20.38;;;10.80;99.90;;;;;;6179554;23;20053;-94
2023/06/09 04:15:24;;;;;;;;;;;;;;;;;;;;;
2023/06/09 04:18:54;;;;;;;;;;;;;;;;;;;;;
2023/06/09 04:43:01;;;;;;;23.52;18.50;;;11.40;99.90;;;;;;6162764;23;20006;-91
2023/06/09 04:46:16;;;;;;;20.10;17.52;;;11.50;99.90;;;;;;6157104;23;20034;-92
2023/06/09 04:49:36;;;;;;;;;;;;;;;;;;;;;
2023/06/09 04:52:29;;;;;;;20.45;16.42;;;11.70;99.90;;;;;;6124945;23;20041;-92
2023/06/09 04:55:18;;;;;;;21.65;18.15;;;12.00;75.50;;;;;;6124686;23;20030;-90
2023/06/09 04:58:07;;;;;;;20.25;16.90;;;12.30;99.90;;;;;;6174742;23;20452;-92
2023/06/09 05:01:04;;;;;;;17.42;15.48;;;12.50;26.10;;;;;;6155195;23;20025;-92
2023/06/09 05:03:58;;;;;;;23.02;16.98;;;12.70;1.00;;;;;;6156446;23;20416;-92
2023/06/09 05:06:46;;;;;;;20.58;15.90;;;12.80;1.00;;;;;;6156667;23;20025;-92
2023/06/09 05:09:34;;;;;;;18.92;16.05;;;12.90;99.90;;;;;;6175611;23;20033;-91
2023/06/09 05:12:22;;;;;;;18.98;14.75;;;13.00;99.90;;;;;;6173133;23;20113;-89
2023/06/09 05:15:09;;;;;;;18.80;15.68;;;13.10;10.90;;;;;;6153989;23;20477;-89
2023/06/09 05:17:57;;;;;;;20.80;16.05;;;13.10;26.20;;;;;;6156712;23;20036;-89
2023/06/09 05:20:45;;;;;;;25.45;15.93;;;13.20;1.00;;;;;;6173241;23;20053;-89
2023/06/09 05:23:33;;;;;;;17.25;15.45;;;13.20;99.90;;;;;;6176282;23;20029;-88
2023/06/09 05:26:21;;;;;;;19.65;15.68;;;13.30;99.90;;;;;;6156193;23;20105;-86
2023/06/09 05:29:08;;;;;;;21.30;15.23;;;13.40;99.90;;;;;;6156322;23;20033;-89
2023/06/09 05:31:56;;;;;;;18.65;14.77;;;13.50;99.90;;;;;;6155716;23;20039;-91
2023/06/09 05:34:44;;;;;;;17.13;14.77;;;13.70;99.90;;;;;;6157597;23;20021;-92
2023/06/09 05:37:35;;;;;;;15.15;13.15;;;13.80;1.00;;;;;;6158467;23;20025;-89
2023/06/09 05:40:28;;;;;;;19.70;13.73;;;14.00;1.00;;;;;;6178329;23;20439;-88
2023/06/09 05:43:16;;;;;;;15.60;12.70;;;14.10;99.90;;;;;;6155152;23;20029;-89
2023/06/09 05:46:03;;;;;;;14.30;11.20;;;14.40;22.10;;;;;;6157543;23;20037;-89
2023/06/09 05:48:52;;;;;;;16.15;12.25;;;14.50;1.00;;;;;;6179250;23;20410;-89
2023/06/09 05:51:40;;;;;;;14.50;12.00;;;14.50;1.00;;;;;;6155763;23;20053;-88
2023/06/09 05:54:29;;;;;;;13.43;11.50;;;14.60;99.90;;;;;;6175814;23;20025;-90
2023/06/09 05:57:19;;;;;;;15.63;11.90;;;14.70;19.80;;;;;;6157538;23;20110;-91
2023/06/09 06:00:10;;;;;;;17.02;11.55;;;14.80;1.00;;;;;;6175700;23;20447;-89
2023/06/09 06:03:00;;;;;;;14.93;11.13;;;14.90;1.00;;;;;;6176246;23;20026;-90
2023/06/09 06:05:48;;;;;;;13.52;10.90;;;15.00;99.90;;;;;;6156912;23;20025;-89
2023/06/09 06:08:38;;;;;;;19.83;12.70;;;15.10;99.90;;;;;;6157329;23;20029;-88
2023/06/09 06:11:26;;;;;;;16.02;11.77;;;15.20;99.90;;;;;;6155592;23;20025;-90
2023/06/09 06:14:13;;;;;;;17.73;12.02;;;15.40;99.90;;;;;;6177841;23;20033;-89
2023/06/09 06:17:01;;;;;;;14.80;11.38;;;15.60;37.50;;;;;;6176742;23;20025;-91
2023/06/09 06:19:49;;;;;;;14.48;11.85;;;15.70;1.00;;;;;;6156013;23;20422;-93
2023/06/09 06:22:37;;;;;;;12.93;10.40;;;15.80;1.00;;;;;;6157051;23;20040;-89
2023/06/09 06:25:25;;;;;;;12.52;10.18;;;16.00;1.00;;;;;;6152332;23;20029;-88
2023/06/09 06:30:49;;;;;;;11.63;9.90;;;16.40;99.90;;;;;;6125532;23;20080;-87
2023/06/09 06:33:42;;;;;;;9.57;8.27;;;16.60;99.90;;;;;;6173257;23;20039;-88
2023/06/09 06:36:39;;;;;;;8.68;7.78;;;16.90;99.90;;;;;;6123977;23;20033;-86
2023/06/09 06:39:28;;;;;;;9.57;7.55;;;17.10;99.90;;;;;;6135035;23;20394;-86
2023/06/09 06:42:18;;;;;;;8.10;6.95;;;17.40;99.60;;;;;;6102816;23;20433;-83
2023/06/09 06:45:06;;;;;;;9.15;7.13;;;17.70;1.00;;;;;;6126594;23;20037;-88
2023/06/09 06:48:00;;;;;;;7.65;6.85;;;17.90;1.00;;;;;;6125752;23;20429;-85
2023/06/09 06:50:47;;;;;;;8.00;6.40;;;18.10;1.00;;;;;;6126529;23;20032;-86
2023/06/09 06:53:39;;;;;;;8.25;6.93;;;18.40;1.00;;;;;;6125553;23;20362;-84
2023/06/09 06:56:27;;;;;;;9.07;6.93;;;18.60;1.00;;;;;;6125672;23;20032;-87
2023/06/09 06:59:14;;;;;;;8.32;5.70;;;19.00;99.90;;;;;;6123489;23;20026;-88
2023/06/09 07:02:02;;;;;;;8.48;6.22;;;19.40;99.90;;;;;;6104663;23;20033;-82
2023/06/09 07:04:50;;;;;;;7.15;5.95;;;19.80;99.90;;;;;;6125239;23;20402;-85
2023/06/09 07:07:38;;;;;;;9.95;5.97;;;20.00;99.90;;;;;;6124840;23;20398;-86
2023/06/09 07:10:31;;;;;;;7.07;5.75;;;20.30;99.90;;;;;;6124033;23;20337;-84
2023/06/09 07:13:18;;;;;;;7.18;5.50;;;20.80;99.90;;;;;;6128594;23;20053;-95
2023/06/09 07:16:09;;;;;;;6.43;5.78;;;21.40;99.90;;;;;;6107654;23;20102;-92
2023/06/09 07:18:56;;;;;;;7.30;5.40;;;21.70;99.90;;;;;;6105465;23;20022;-88
2023/06/09 07:21:46;;;;;;;5.85;5.25;;;21.80;99.90;;;;;;6105977;23;20021;-92
2023/06/09 07:24:36;;;;;;;8.27;5.50;;;22.10;99.90;;;;;;6116737;23;20102;-89
2023/06/09 07:27:23;;;;;;;4.75;4.22;;;22.60;99.90;;;;;;6120411;23;20070;-89
2023/06/09 07:30:11;;;;;;;6.32;5.15;;;23.00;99.90;;;;;;6118723;23;20084;-89
2023/06/09 07:32:59;;;;;;;6.05;5.32;;;23.70;99.90;;;;;;6116786;23;20030;-91
2023/06/09 07:35:49;;;;;;;6.63;4.60;;;24.20;76.20;;;;;;6110701;23;20030;-93
2023/06/09 07:38:38;;;;;;;5.22;4.63;;;24.40;52.60;;;;;;6153249;23;20297;-91
2023/06/09 07:41:32;;;;;;;7.70;4.35;;;24.70;45.10;;;;;;6186687;23;20032;-84
2023/06/09 07:44:21;;;;;;;8.88;4.13;;;25.20;36.10;;;;;;6162550;23;20373;-92
2023/06/09 07:47:11;;;;;;;7.10;4.05;;;25.40;20.90;;;;;;6160678;23;20028;-91
2023/06/09 07:49:59;;;;;;;5.15;4.30;;;25.40;16.50;;;;;;6186052;23;20125;-89
2023/06/09 07:52:49;;;;;;;5.50;3.90;;;25.90;13.10;;;;;;6185478;23;20031;-89
2023/06/09 07:55:37;;;;;;;6.57;3.97;;;26.20;3.60;;;;;;6164780;23;20401;-93
2023/06/09 07:58:28;;;;;;;8.10;3.85;;;25.90;1.00;;;;;;6164063;23;20036;-86
2023/06/09 08:01:16;;;;;;;4.20;3.78;;;26.20;1.00;;;;;;6164037;23;20703;-88
2023/06/09 08:04:03;;;;;;;6.60;4.22;;;26.20;1.00;;;;;;6162891;23;20029;-90
2023/06/09 08:06:54;;;;;;;3.42;3.13;;;26.10;1.00;;;;;;6185830;23;20108;-89
2023/06/09 08:09:43;;;;;;;4.68;4.18;;;26.40;1.00;;;;;;6141863;23;20036;-90
2023/06/09 08:12:34;;;;;;;4.65;3.83;;;26.70;1.00;;;;;;6162315;23;20104;-88
2023/06/09 08:15:23;;;;;;;5.53;4.40;;;26.80;1.00;;;;;;6165516;23;20033;-91
2023/06/09 08:18:16;;;;;;;4.18;3.75;;;27.00;1.00;;;;;;6186619;23;20025;-90
2023/06/09 08:21:04;;;;;;;9.30;3.95;;;27.30;1.00;;;;;;6165967;23;20036;-89
2023/06/09 08:23:53;;;;;;;5.38;3.42;;;27.60;1.00;;;;;;6161744;23;20428;-91
2023/06/09 08:26:44;;;;;;;6.63;3.45;;;27.90;1.00;;;;;;6165178;23;20080;-90
2023/06/09 08:29:32;;;;;;;5.82;3.70;;;28.10;1.00;;;;;;6168478;23;20021;-89
2023/06/09 08:32:22;;;;;;;4.00;3.60;;;28.50;1.00;;;;;;6188069;23;20053;-91
2023/06/09 08:35:12;;;;;;;6.68;4.15;;;28.60;1.00;;;;;;6160965;23;20087;-94
2023/06/09 08:38:00;;;;;;;4.55;3.80;;;29.00;1.00;;;;;;6163289;23;20385;-92
2023/06/09 08:40:49;;;;;;;3.50;3.20;;;28.90;1.00;;;;;;6164312;23;20115;-88
2023/06/09 08:43:39;;;;;;;8.07;3.35;;;29.10;1.00;;;;;;6166293;23;20039;-91
2023/06/09 08:46:35;;;;;;;3.42;3.03;;;29.50;1.00;;;;;;6165291;23;20077;-91
2023/06/09 08:49:27;;;;;;;3.60;3.30;;;30.10;1.00;;;;;;6163022;23;20032;-88
2023/06/09 08:52:15;;;;;;;6.20;3.35;;;30.00;1.00;;;;;;6167150;23;20044;-90
2023/06/09 08:55:08;;;;;;;3.45;3.10;;;29.60;1.00;;;;;;6164606;23;20032;-91
2023/06/09 08:57:58;;;;;;;4.80;2.92;;;29.00;1.00;;;;;;6187582;23;20087;-87
2023/06/09 09:00:47;;;;;;;4.60;3.03;;;29.10;1.00;;;;;;6187118;23;20035;-86
2023/06/09 09:03:35;;;;;;;5.97;2.78;;;29.60;1.00;;;;;;6193417;23;20060;-87
2023/06/09 09:06:26;;;;;;;3.47;3.17;;;29.90;1.00;;;;;;6177610;23;20021;-90
2023/06/09 09:09:15;;;;;;;3.95;2.75;;;30.20;1.00;;;;;;6166430;23;20020;-92
2023/06/09 09:12:09;;;;;;;6.53;2.95;;;30.40;1.00;;;;;;6165297;23;20021;-91
2023/06/09 09:15:07;;;;;;;3.50;2.95;;;30.70;1.00;;;;;;6185630;23;20090;-89
2023/06/09 09:18:01;;;;;;;4.97;2.67;;;30.80;1.00;;;;;;6186549;23;20017;-89
2023/06/09 09:20:51;;;;;;;2.95;2.65;;;30.80;1.00;;;;;;6164479;23;20025;-90
2023/06/09 09:23:38;;;;;;;4.63;3.10;;;30.90;1.00;;;;;;6163705;23;20052;-90
2023/06/09 09:26:28;;;;;;;4.35;3.13;;;31.10;1.00;;;;;;6164141;23;20104;-90
2023/06/09 09:29:21;;;;;;;5.10;2.95;;;31.60;1.00;;;;;;6165300;23;20120;-94
2023/06/09 09:32:08;;;;;;;5.05;3.15;;;31.60;1.00;;;;;;6164376;23;20021;-90
2023/06/09 09:35:02;;;;;;;5.40;3.20;;;31.00;1.00;;;;;;6162840;23;20025;-89
2023/06/09 09:37:51;;;;;;;4.07;2.83;;;31.20;1.00;;;;;;6167522;23;20033;-89
2023/06/09 09:40:49;;;;;;;4.28;2.70;;;31.30;1.00;;;;;;6186625;23;20024;-87
2023/06/09 09:43:39;;;;;;;4.93;3.00;;;31.30;1.00;;;;;;6164974;23;20029;-92
2023/06/09 09:46:37;;;;;;;3.90;3.50;;;31.00;1.00;;;;;;6164069;23;20055;-91
2023/06/09 09:49:28;;;;;;;5.50;2.70;;;31.20;1.00;;;;;;6166200;23;20092;-92
2023/06/09 09:52:33;;;;;;;2.70;2.25;;;31.10;1.00;;;;;;6189025;23;20021;-92
2023/06/09 09:55:21;;;;;;;4.57;3.40;;;30.60;1.00;;;;;;6166426;23;20033;-91
2023/06/09 09:58:31;;;;;;;5.03;3.00;;;30.70;1.00;;;;;;6171239;23;20025;-94
2023/06/09 10:01:23;;;;;;;6.00;2.92;;;30.70;1.00;;;;;;6195658;23;20080;-87
2023/06/09 10:04:12;;;;;;;2.42;2.22;;;31.70;1.00;;;;;;6189509;23;20103;-91
2023/06/09 10:07:01;;;;;;;2.90;2.70;;;32.90;1.00;;;;;;6166177;23;20036;-90
2023/06/09 10:09:53;;;;;;;3.47;2.25;;;33.60;1.00;;;;;;6163964;23;20088;-88
2023/06/09 10:12:41;;;;;;;5.18;2.97;;;34.00;1.00;;;;;;6186416;23;20039;-90
2023/06/09 10:15:30;;;;;;;2.67;2.25;;;33.90;1.00;;;;;;6165361;23;20029;-90
2023/06/09 10:18:20;;;;;;;2.88;2.53;;;33.50;1.00;;;;;;6162575;23;20033;-89
2023/06/09 10:21:12;;;;;;;3.83;2.40;;;33.20;1.00;;;;;;6162744;23;20087;-85
2023/06/09 10:24:02;;;;;;;2.75;2.53;;;32.80;1.00;;;;;;6185971;23;20032;-86
2023/06/09 10:26:53;;;;;;;3.28;2.60;;;32.80;1.00;;;;;;6163872;23;20417;-90
2023/06/09 10:29:41;;;;;;;2.85;2.50;;;31.90;1.00;;;;;;6165721;23;20032;-90
2023/06/09 10:32:31;;;;;;;3.55;2.38;;;31.50;1.00;;;;;;6163776;23;20048;-92
2023/06/09 10:35:25;;;;;;;2.80;2.47;;;30.40;1.00;;;;;;6145518;23;20029;-88
2023/06/09 10:38:22;;;;;;;3.42;2.63;;;30.70;1.00;;;;;;6172382;23;20159;-93
2023/06/09 10:41:30;;;;;;;4.65;3.08;;;31.50;1.00;;;;;;6192933;23;20024;-88
2023/06/09 10:44:35;;;;;;;3.65;3.00;;;31.70;1.00;;;;;;6165856;23;20039;-92
2023/06/09 10:47:44;;;;;;;4.80;3.25;;;31.80;1.00;;;;;;6184659;23;20108;-92
2023/06/09 10:50:32;;;;;;;5.43;2.70;;;32.50;1.00;;;;;;6185276;23;20401;-90
2023/06/09 10:53:22;;;;;;;3.90;2.40;;;32.90;1.00;;;;;;6163639;23;20052;-91
2023/06/09 10:56:35;;;;;;;4.60;2.70;;;33.20;1.00;;;;;;6165356;23;20035;-91
2023/06/09 10:59:26;;;;;;;2.97;2.67;;;33.20;1.00;;;;;;6162671;23;20033;-92
2023/06/09 11:02:15;;;;;;;3.88;2.60;;;33.20;1.00;;;;;;6168428;23;20041;-89
2023/06/09 11:05:04;;;;;;;3.05;2.75;;;33.30;1.00;;;;;;6187896;23;20094;-88
2023/06/09 11:08:04;;;;;;;4.93;2.50;;;33.80;1.00;;;;;;6165342;23;20021;-89
2023/06/09 11:10:51;;;;;;;2.67;2.47;;;33.70;1.00;;;;;;6188274;23;20051;-89
2023/06/09 11:13:40;;;;;;;2.60;2.40;;;34.00;1.00;;;;;;6186977;23;20024;-91
2023/06/09 11:17:05;;;;;;;2.85;2.15;;;34.60;1.00;;;;;;6186404;23;20044;-92
2023/06/09 11:20:10;;;;;;;3.38;2.67;;;34.90;1.00;;;;;;6164627;23;20025;-88
2023/06/09 11:23:00;;;;;;;2.60;2.40;;;34.70;1.00;;;;;;6165624;23;20451;-87
2023/06/09 11:25:47;;;;;;;2.97;2.60;;;33.70;1.00;;;;;;6187238;23;20035;-91
2023/06/09 11:28:41;;;;;;;4.32;2.63;;;33.20;1.00;;;;;;6167052;23;20024;-89
2023/06/09 11:31:29;;;;;;;3.33;2.60;;;33.80;1.00;;;;;;6171254;23;20025;-91
2023/06/09 11:34:48;;;;;;;2.55;2.30;;;34.50;1.00;;;;;;6170046;23;20029;-89
2023/06/09 11:37:38;;;;;;;2.72;2.50;;;34.60;1.00;;;;;;6187716;23;20035;-93
2023/06/09 11:40:39;;;;;;;2.53;2.33;;;33.90;1.00;;;;;;6168810;23;20052;-90
2023/06/09 11:43:31;;;;;;;3.38;2.40;;;34.00;1.00;;;;;;6187650;23;20476;-88
2023/06/09 11:46:21;;;;;;;;;;;32.80;1.00;;;;;;6165566;23;20029;-91
2023/06/09 11:49:09;;;;;;;3.03;2.50;;;33.50;1.00;;;;;;6186319;23;19986;-90
2023/06/09 11:52:13;;;;;;;4.22;2.75;;;34.50;1.00;;;;;;6167589;23;20037;-89
2023/06/09 11:55:05;;;;;;;3.00;2.53;;;33.50;1.00;;;;;;6164102;23;20032;-87
2023/06/09 11:57:53;;;;;;;4.20;2.47;;;32.40;1.00;;;;;;6149231;23;20039;-91
2023/06/09 12:00:43;;;;;;;4.00;2.78;;;31.30;1.00;;;;;;6187431;23;20029;-86
2023/06/09 12:03:36;;;;;;;3.65;2.58;;;31.00;1.00;;;;;;6166255;23;20025;-92
2023/06/09 12:06:26;;;;;;;3.28;2.53;;;31.90;1.00;;;;;;6165539;23;20384;-86
2023/06/09 12:09:23;;;;;;;3.50;2.40;;;33.10;1.00;;;;;;6168767;23;20092;-88
2023/06/09 12:12:11;;;;;;;3.20;2.40;;;33.60;1.00;;;;;;6187903;23;20028;-88
2023/06/09 12:15:01;;;;;;;2.90;2.13;;;32.80;1.00;;;;;;6191414;23;20376;-90
2023/06/09 12:17:50;;;;;;;6.45;2.58;;;33.00;1.00;;;;;;6167680;23;20029;-90
2023/06/09 12:20:41;;;;;;;2.65;1.92;;;34.40;1.00;;;;;;6188393;23;20052;-89
2023/06/09 12:23:30;;;;;;;3.30;2.30;;;34.60;1.00;;;;;;6188869;23;20037;-91
2023/06/09 12:26:22;;;;;;;2.83;2.20;;;34.90;1.00;;;;;;6167889;23;20021;-89
2023/06/09 12:29:13;;;;;;;2.90;1.90;;;34.60;1.00;;;;;;6166497;23;20024;-90
2023/06/09 12:32:00;;;;;;;2.85;2.47;;;34.80;1.00;;;;;;6165966;23;20031;-88
2023/06/09 12:34:47;;;;;;;2.13;1.85;;;34.80;1.80;;;;;;6187964;23;20115;-89
2023/06/09 12:37:41;;;;;;;3.80;2.33;;;34.80;7.60;;;;;;6188704;23;20087;-89
2023/06/09 12:41:05;;;;;;;2.10;1.90;;;35.50;1.00;;;;;;6167752;23;20028;-90
2023/06/09 12:43:59;;;;;;;2.47;2.20;;;36.60;1.00;;;;;;6190521;23;20051;-87
2023/06/09 12:46:54;;;;;;;2.58;1.90;;;34.20;1.00;;;;;;6150723;23;20022;-86
2023/06/09 12:49:44;;;;;;;4.20;2.20;;;34.70;1.00;;;;;;6189986;23;20025;-92
2023/06/09 12:52:33;;;;;;;4.45;2.30;;;33.90;1.00;;;;;;6191235;23;20035;-90
2023/06/09 12:55:24;;;;;;;2.20;2.00;;;33.10;30.30;;;;;;6169357;23;20051;-91
2023/06/09 12:58:17;;;;;;;3.28;2.40;;;34.00;8.90;;;;;;6193684;23;20046;-87
2023/06/09 13:01:08;;;;;;;2.10;1.92;;;35.60;1.00;;;;;;6181705;23;20025;-86
2023/06/09 13:03:58;;;;;;;3.92;2.50;;;36.80;1.00;;;;;;6183345;23;20056;-82
2023/06/09 13:06:56;;;;;;;2.47;2.28;;;34.60;1.00;;;;;;6186024;23;20054;-87
2023/06/09 13:09:46;;;;;;;3.05;2.60;;;32.10;1.00;;;;;;6178332;23;20080;-83
2023/06/09 13:12:34;;;;;;;2.92;2.42;;;30.30;1.00;;;;;;6201327;23;20021;-87
2023/06/09 13:15:26;;;;;;;3.28;2.20;;;30.80;1.00;;;;;;6176115;23;20085;-89
2023/06/09 13:18:16;;;;;;;3.35;2.13;;;31.50;1.00;;;;;;6174998;23;20028;-88
2023/06/09 13:21:06;;;;;;;3.22;2.53;;;32.60;1.00;;;;;;6170587;23;20293;-87
2023/06/09 13:23:56;;;;;;;3.15;2.00;;;33.10;1.00;;;;;;6188079;23;20409;-88
2023/06/09 13:26:48;;;;;;;3.50;2.40;;;33.20;1.00;;;;;;6191499;23;20025;-90
2023/06/09 13:29:42;;;;;;;3.22;2.30;;;34.30;1.00;;;;;;6187653;23;20025;-89
2023/06/09 13:32:30;;;;;;;2.83;2.10;;;35.00;1.00;;;;;;6170175;23;20025;-88
2023/06/09 13:35:17;;;;;;;2.78;1.95;;;34.60;1.00;;;;;;6169305;23;20025;-90
2023/06/09 13:38:07;;;;;;;2.75;2.10;;;35.00;1.00;;;;;;6173947;23;20031;-88
2023/06/09 13:40:57;;;;;;;;;;;35.70;1.00;;;;;;6174642;23;20025;-87
2023/06/09 13:43:47;;;;;;;3.50;2.00;;;35.70;1.00;;;;;;6190396;23;19963;-89
2023/06/09 13:46:35;;;;;;;2.30;2.00;;;34.80;1.00;;;;;;6166283;23;20025;-88
2023/06/09 13:49:25;;;;;;;3.95;2.08;;;32.80;1.00;;;;;;6186749;23;20025;-84
2023/06/09 13:52:18;;;;;;;2.90;2.60;;;30.60;1.00;;;;;;6185115;23;20079;-88
2023/06/09 13:55:06;;;;;;;2.67;2.30;;;29.40;1.00;;;;;;6163662;23;20025;-90
2023/06/09 13:57:53;;;;;;;2.42;1.98;;;29.50;1.00;;;;;;6166345;23;20035;-87
2023/06/09 14:00:48;;;;;;;2.33;2.13;;;30.60;1.00;;;;;;6185401;23;20029;-89
2023/06/09 14:03:37;;;;;;;2.80;2.13;;;31.70;1.00;;;;;;6185010;23;20039;-88
2023/06/09 14:06:26;;;;;;;4.22;2.05;;;32.50;1.00;;;;;;6165879;23;20029;-92
2023/06/09 14:09:16;;;;;;;3.25;2.28;;;32.50;1.00;;;;;;6189330;23;20025;-86
2023/06/09 14:12:06;;;;;;;6.25;1.75;;;33.00;1.00;;;;;;6188828;23;20449;-88
2023/06/09 14:15:27;;;;;;;2.58;1.80;;;33.60;1.00;;;;;;6168294;23;20021;-91
2023/06/09 14:18:18;;;;;;;4.00;1.70;;;34.10;1.00;;;;;;6165587;23;20024;-90
2023/06/09 14:21:10;;;;;;;3.42;1.85;;;34.80;1.00;;;;;;6187675;23;20029;-92
2023/06/09 14:23:59;;;;;;;2.65;1.90;;;35.20;1.00;;;;;;6183688;23;20029;-87
2023/06/09 14:26:50;;;;;;;2.08;1.83;;;34.90;1.00;;;;;;6165245;23;20073;-94
2023/06/09 14:29:40;;;;;;;3.22;1.67;;;34.30;1.00;;;;;;6165588;23;20029;-90
2023/06/09 14:32:27;;;;;;;2.63;2.00;;;34.60;1.00;;;;;;6186581;23;20035;-90
2023/06/09 14:35:22;;;;;;;3.90;1.83;;;34.30;1.00;;;;;;6186573;23;20036;-89
2023/06/09 14:38:10;;;;;;;2.95;2.03;;;33.90;1.00;;;;;;6165415;23;20604;-88
2023/06/09 14:41:02;;;;;;;4.22;2.25;;;33.40;1.00;;;;;;6187082;23;20029;-88
2023/06/09 14:43:52;;;;;;;5.28;2.20;;;32.70;1.00;;;;;;6180104;23;20032;-90
2023/06/09 14:46:48;;;;;;;6.60;2.55;;;32.30;1.00;;;;;;6187015;23;20057;-92
2023/06/09 14:49:56;;;;;;;3.15;2.05;;;32.30;1.00;;;;;;6191357;23;20040;-88
2023/06/09 14:52:44;;;;;;;5.30;2.38;;;32.20;1.00;;;;;;6165537;23;20032;-89
2023/06/09 14:55:43;;;;;;;3.05;2.40;;;31.80;1.00;;;;;;6163025;23;20332;-87
2023/06/09 14:58:32;;;;;;;2.72;2.03;;;32.20;1.00;;;;;;6166429;23;20033;-90
2023/06/09 15:01:24;;;;;;;2.85;2.28;;;32.40;1.00;;;;;;6184967;23;20358;-90
2023/06/09 15:04:15;;;;;;;4.03;2.00;;;32.40;1.00;;;;;;6162761;23;20029;-94
2023/06/09 15:07:10;;;;;;;2.85;2.03;;;32.00;1.00;;;;;;6183373;23;20313;-87
2023/06/09 15:09:57;;;;;;;;;;;32.00;1.00;;;;;;6184951;23;20068;-90
2023/06/09 15:12:44;;;;;;;2.20;2.00;;;31.50;1.00;;;;;;6161030;23;19923;-88
2023/06/09 15:15:41;;;;;;;2.65;2.45;;;32.00;1.00;;;;;;6186856;23;20472;-90
2023/06/09 15:18:29;;;;;;;2.47;2.00;;;31.80;1.00;;;;;;6162873;23;20139;-89
2023/06/09 15:21:17;;;;;;;2.40;2.20;;;31.90;1.00;;;;;;6183994;23;20131;-86
2023/06/09 15:24:13;;;;;;;3.42;2.30;;;31.90;1.00;;;;;;6159204;23;20025;-86
2023/06/09 15:27:00;;;;;;;2.15;1.92;;;31.90;1.00;;;;;;6164305;23;20035;-89
2023/06/09 15:29:53;;;;;;;2.45;2.20;;;31.80;1.00;;;;;;6183562;23;20021;-87
2023/06/09 15:32:41;;;;;;;2.10;1.90;;;31.00;1.00;;;;;;6181986;23;20096;-90
2023/06/09 15:35:32;;;;;;;2.95;2.40;;;30.90;1.00;;;;;;6159471;23;20064;-90
2023/06/09 15:38:24;;;;;;;3.08;2.78;;;31.20;1.00;;;;;;6159454;23;20036;-86
2023/06/09 15:41:17;;;;;;;6.82;2.30;;;30.90;1.00;;;;;;6182355;23;20114;-91